createdAt,value
2022-10-14T04:00:40.167Z,12.79
2022-10-14T04:01:41.572Z,12.82
2022-10-14T04:02:41.848Z,12.82
2022-10-14T04:03:42.216Z,12.83
2022-10-14T04:04:42.577Z,12.82
2022-10-14T04:05:42.952Z,12.83
2022-10-14T04:06:43.315Z,12.82
2022-10-14T04:07:43.689Z,12.82
2022-10-14T04:08:44.075Z,12.82
2022-10-14T04:09:44.482Z,12.80
2022-10-14T04:10:44.809Z,12.82
2022-10-14T04:11:45.146Z,12.82
2022-10-14T04:12:45.525Z,12.82
2022-10-14T04:14:41.052Z,12.79
2022-10-14T04:15:42.427Z,12.80
2022-10-14T04:16:46.065Z,12.82
2022-10-14T04:17:43.163Z,12.83
2022-10-14T04:18:43.522Z,12.80
2022-10-14T04:19:43.877Z,12.82
2022-10-14T04:20:44.241Z,12.80
2022-10-14T04:21:44.626Z,12.80
2022-10-14T04:22:44.975Z,12.82
2022-10-14T04:23:45.335Z,12.82
2022-10-14T04:24:45.700Z,12.80
2022-10-14T04:25:46.062Z,12.82
2022-10-14T04:26:46.459Z,12.80
2022-10-14T04:27:46.767Z,12.80
2022-10-14T04:28:47.175Z,12.82
2022-10-14T04:29:47.483Z,12.80
2022-10-14T04:30:47.856Z,12.82
2022-10-14T04:31:48.215Z,12.80
2022-10-14T04:32:48.567Z,12.80
2022-10-14T04:33:48.909Z,12.80
2022-10-14T04:34:49.260Z,12.80
2022-10-14T04:35:49.617Z,12.79
2022-10-14T04:36:49.997Z,12.79
2022-10-14T04:37:50.347Z,12.79
2022-10-14T04:38:50.711Z,12.78
2022-10-14T04:39:51.071Z,12.78
2022-10-14T04:40:51.430Z,12.78
2022-10-14T04:41:51.805Z,12.79
2022-10-14T04:42:52.157Z,12.79
2022-10-14T04:43:52.514Z,12.80
2022-10-14T04:44:52.876Z,12.78
2022-10-14T04:45:53.219Z,12.78
2022-10-14T04:46:53.593Z,12.79
2022-10-14T04:47:53.944Z,12.78
2022-10-14T04:48:54.310Z,12.79
2022-10-14T04:49:54.669Z,12.79
2022-10-14T04:50:55.027Z,12.79
2022-10-14T04:51:55.412Z,12.79
2022-10-14T04:52:55.769Z,12.79
2022-10-14T04:53:56.111Z,12.79
2022-10-14T04:54:56.548Z,12.78
2022-10-14T04:55:56.829Z,12.79
2022-10-14T04:56:57.195Z,12.78
2022-10-14T04:57:57.540Z,12.79
2022-10-14T04:58:57.893Z,12.80
2022-10-14T04:59:58.255Z,12.79
2022-10-14T05:00:58.608Z,12.79
2022-10-14T05:01:59.069Z,12.79
2022-10-14T05:02:59.368Z,12.79
2022-10-14T05:03:59.738Z,12.79
2022-10-14T05:05:00.108Z,12.80
2022-10-14T05:06:00.475Z,12.79
2022-10-14T05:07:00.852Z,12.79
2022-10-14T05:08:01.204Z,12.79
2022-10-14T05:09:01.559Z,12.79
2022-10-14T05:10:01.936Z,12.79
2022-10-14T05:11:02.321Z,12.78
2022-10-14T05:12:02.719Z,12.78
2022-10-14T05:13:03.055Z,12.78
2022-10-14T05:14:03.387Z,12.78
2022-10-14T05:15:03.509Z,12.78
2022-10-14T05:16:03.680Z,12.76
2022-10-14T05:17:03.865Z,12.78
2022-10-14T05:18:04.238Z,12.78
2022-10-14T05:19:04.457Z,12.76
2022-10-14T05:20:04.637Z,12.76
2022-10-14T05:21:04.794Z,12.76
2022-10-14T05:22:04.975Z,12.75
2022-10-14T05:23:05.124Z,12.76
2022-10-14T05:24:05.295Z,12.75
2022-10-14T05:25:05.475Z,12.75
2022-10-14T05:26:05.642Z,12.76
2022-10-14T05:27:05.859Z,12.75
2022-10-14T05:28:06.002Z,12.76
2022-10-14T05:29:06.202Z,12.76
2022-10-14T05:30:06.478Z,12.76
2022-10-14T05:31:06.669Z,12.75
2022-10-14T05:32:06.995Z,12.75
2022-10-14T05:33:07.110Z,12.76
2022-10-14T05:34:07.490Z,12.76
2022-10-14T05:35:07.577Z,12.76
2022-10-14T05:36:07.863Z,12.76
2022-10-14T05:37:08.061Z,12.76
2022-10-14T05:38:08.231Z,12.75
2022-10-14T05:39:08.538Z,12.76
2022-10-14T05:40:08.697Z,12.75
2022-10-14T05:41:08.879Z,12.76
2022-10-14T05:42:09.176Z,12.76
2022-10-14T05:43:09.454Z,12.76
2022-10-14T05:44:09.625Z,12.76
2022-10-14T05:45:09.809Z,12.78
2022-10-14T05:46:10.095Z,12.78
2022-10-14T05:47:10.396Z,12.79
2022-10-14T05:51:12.765Z,12.78
2022-10-14T05:52:13.964Z,12.78
2022-10-14T05:53:14.229Z,12.78
2022-10-14T05:54:14.409Z,12.78
2022-10-14T05:55:14.577Z,12.79
2022-10-14T05:56:14.764Z,12.80
2022-10-14T05:57:14.936Z,12.79
2022-10-14T05:58:15.196Z,12.79
2022-10-14T05:59:15.368Z,12.79
2022-10-14T06:00:15.674Z,12.80
2022-10-14T06:01:15.845Z,12.80
2022-10-14T06:02:16.156Z,12.79
2022-10-14T06:03:16.364Z,12.80
2022-10-14T06:04:16.609Z,12.80
2022-10-14T06:05:16.775Z,12.80
2022-10-14T06:06:17.150Z,12.82
2022-10-14T06:07:17.166Z,12.82
2022-10-14T06:08:17.329Z,12.83
2022-10-14T06:09:17.495Z,12.82
2022-10-14T06:10:17.701Z,12.83
2022-10-14T06:11:17.862Z,12.82
2022-10-14T06:12:18.090Z,12.83
2022-10-14T06:13:18.204Z,12.83
2022-10-14T06:14:18.383Z,12.83
2022-10-14T06:15:18.578Z,12.85
2022-10-14T06:16:18.752Z,12.85
2022-10-14T06:17:18.959Z,12.85
2022-10-14T06:18:19.111Z,12.85
2022-10-14T06:19:19.291Z,12.86
2022-10-14T06:20:19.486Z,12.86
2022-10-14T06:21:19.684Z,12.86
2022-10-14T06:22:20.347Z,12.86
2022-10-14T06:23:20.011Z,12.86
2022-10-14T06:24:20.211Z,12.90
2022-10-14T06:25:20.367Z,12.86
2022-10-14T06:26:20.543Z,12.87
2022-10-14T06:27:20.752Z,12.90
2022-10-14T06:28:20.932Z,12.90
2022-10-14T06:29:21.155Z,12.90
2022-10-14T06:30:21.238Z,12.90
2022-10-14T06:31:21.431Z,12.91
2022-10-14T06:32:22.028Z,12.91
2022-10-14T06:33:21.785Z,12.91
2022-10-14T06:34:21.969Z,12.93
2022-10-14T06:35:22.137Z,12.91
2022-10-14T06:36:22.303Z,12.94
2022-10-14T06:37:22.499Z,12.95
2022-10-14T06:38:22.677Z,12.98
2022-10-14T06:39:22.853Z,12.97
2022-10-14T06:40:23.044Z,12.97
2022-10-14T06:41:23.206Z,12.98
2022-10-14T06:42:23.723Z,13.00
2022-10-14T06:43:23.591Z,13.00
2022-10-14T06:44:23.790Z,13.01
2022-10-14T06:45:23.999Z,13.03
2022-10-14T06:46:24.168Z,13.09
2022-10-14T06:47:24.368Z,13.05
2022-10-14T06:48:24.541Z,13.08
2022-10-14T06:49:24.713Z,13.09
2022-10-14T06:50:24.941Z,13.08
2022-10-14T06:51:25.104Z,13.09
2022-10-14T06:52:25.350Z,13.09
2022-10-14T06:53:25.473Z,13.11
2022-10-14T06:54:25.661Z,13.11
2022-10-14T06:55:25.830Z,13.11
2022-10-14T06:56:26.023Z,13.12
2022-10-14T06:57:26.218Z,13.11
2022-10-14T06:58:26.395Z,13.11
2022-10-14T06:59:26.573Z,13.11
2022-10-14T07:00:26.772Z,13.11
2022-10-14T07:01:26.961Z,13.13
2022-10-14T07:02:27.119Z,13.12
2022-10-14T07:03:27.286Z,13.15
2022-10-14T07:04:27.488Z,13.16
2022-10-14T07:05:27.687Z,13.18
2022-10-14T07:06:27.910Z,13.19
2022-10-14T07:07:28.091Z,13.19
2022-10-14T07:08:28.245Z,13.19
2022-10-14T07:09:28.442Z,13.22
2022-10-14T07:10:28.644Z,13.22
2022-10-14T07:11:28.832Z,13.22
2022-10-14T07:12:29.051Z,13.23
2022-10-14T07:13:29.211Z,13.27
2022-10-14T07:14:29.401Z,13.27
2022-10-14T07:15:33.833Z,13.28
2022-10-14T07:16:29.793Z,13.30
2022-10-14T07:17:29.995Z,13.28
2022-10-14T07:18:30.141Z,13.28
2022-10-14T07:19:30.315Z,13.31
2022-10-14T07:20:30.518Z,13.33
2022-10-14T07:21:30.713Z,13.33
2022-10-14T07:22:32.238Z,13.33
2022-10-14T07:23:31.054Z,13.33
2022-10-14T07:24:31.249Z,13.35
2022-10-14T07:25:31.450Z,13.37
2022-10-14T07:26:31.630Z,13.39
2022-10-14T07:27:31.800Z,13.39
2022-10-14T07:28:32.023Z,13.39
2022-10-14T07:29:32.190Z,13.38
2022-10-14T07:30:32.397Z,13.39
2022-10-14T07:31:32.549Z,13.37
2022-10-14T07:32:32.789Z,13.38
2022-10-14T07:33:33.033Z,13.39
2022-10-14T07:34:33.162Z,13.38
2022-10-14T07:35:33.328Z,13.39
2022-10-14T07:36:33.518Z,13.38
2022-10-14T07:37:33.753Z,13.39
2022-10-14T07:38:33.904Z,13.39
2022-10-14T07:39:34.118Z,13.39
2022-10-14T07:40:34.296Z,13.41
2022-10-14T07:41:34.476Z,13.38
2022-10-14T07:42:34.671Z,13.38
2022-10-14T07:43:34.835Z,13.39
2022-10-14T07:44:35.037Z,13.41
2022-10-14T07:45:35.208Z,13.41
2022-10-14T07:46:35.398Z,13.44
2022-10-14T07:47:35.607Z,13.44
2022-10-14T07:48:45.235Z,13.44
2022-10-14T07:49:35.953Z,13.47
2022-10-14T07:50:36.151Z,13.46
2022-10-14T07:51:36.343Z,13.44
2022-10-14T07:52:36.555Z,13.42
2022-10-14T07:53:36.719Z,13.39
2022-10-14T07:54:36.913Z,13.38
2022-10-14T07:55:37.103Z,13.39
2022-10-14T07:56:37.298Z,13.37
2022-10-14T07:57:37.492Z,13.30
2022-10-14T07:58:42.209Z,13.31
2022-10-14T07:59:37.833Z,13.28
2022-10-14T08:00:38.040Z,13.31
2022-10-14T08:01:38.283Z,13.33
2022-10-14T08:02:38.438Z,13.33
2022-10-14T08:03:38.623Z,13.33
2022-10-14T08:04:38.828Z,13.33
2022-10-14T08:05:39.267Z,13.33
2022-10-14T08:06:39.163Z,13.38
2022-10-14T08:07:39.360Z,13.44
2022-10-14T08:08:39.553Z,13.50
2022-10-14T08:09:39.747Z,13.56
2022-10-14T08:10:39.938Z,13.56
2022-10-14T08:11:40.169Z,13.62
2022-10-14T08:12:40.331Z,13.59
2022-10-14T08:13:43.405Z,13.56
2022-10-14T08:14:40.671Z,13.56
2022-10-14T08:15:40.860Z,13.52
2022-10-14T08:16:41.059Z,13.53
2022-10-14T08:17:41.259Z,13.59
2022-10-14T08:18:41.413Z,13.62
2022-10-14T08:19:41.628Z,13.65
2022-10-14T08:20:41.814Z,13.63
2022-10-14T08:21:42.042Z,13.71
2022-10-14T08:22:42.219Z,13.72
2022-10-14T08:23:42.383Z,13.77
2022-10-14T08:24:42.583Z,13.77
2022-10-14T08:25:42.783Z,13.77
2022-10-14T08:26:42.976Z,13.77
2022-10-14T08:27:43.184Z,13.78
2022-10-14T08:28:43.393Z,13.85
2022-10-14T08:29:43.537Z,13.83
2022-10-14T08:30:43.738Z,13.85
2022-10-14T08:31:43.930Z,13.83
2022-10-14T08:32:44.188Z,13.85
2022-10-14T08:33:44.300Z,13.87
2022-10-14T08:34:44.503Z,13.85
2022-10-14T08:35:44.708Z,13.78
2022-10-14T08:36:44.902Z,13.78
2022-10-14T08:37:45.088Z,13.85
2022-10-14T08:38:45.266Z,13.90
2022-10-14T08:39:45.480Z,13.90
2022-10-14T08:40:45.649Z,13.95
2022-10-14T08:41:45.861Z,13.95
2022-10-14T08:42:46.046Z,13.96
2022-10-14T08:43:46.198Z,13.93
2022-10-14T08:44:46.409Z,13.99
2022-10-14T08:45:46.564Z,13.99
2022-10-14T08:46:51.094Z,13.97
2022-10-14T08:47:46.982Z,13.93
2022-10-14T08:48:47.138Z,13.93
2022-10-14T08:49:47.332Z,13.87
2022-10-14T08:50:47.525Z,13.83
2022-10-14T08:51:47.729Z,13.78
2022-10-14T08:52:47.932Z,13.79
2022-10-14T08:53:48.107Z,13.79
2022-10-14T08:54:48.274Z,13.78
2022-10-14T08:55:48.472Z,13.77
2022-10-14T08:56:48.663Z,13.74
2022-10-14T08:57:48.865Z,13.77
2022-10-14T08:58:49.032Z,13.77
2022-10-14T08:59:49.225Z,13.74
2022-10-14T09:00:49.424Z,13.72
2022-10-14T09:01:49.627Z,13.70
2022-10-14T09:02:49.851Z,13.71
2022-10-14T09:03:50.043Z,13.74
2022-10-14T09:04:50.207Z,13.74
2022-10-14T09:05:50.364Z,13.79
2022-10-14T09:06:50.557Z,13.86
2022-10-14T09:08:50.955Z,13.93
2022-10-14T09:09:51.143Z,13.93
2022-10-14T09:10:51.347Z,13.99
2022-10-14T09:11:51.541Z,14.03
2022-10-14T09:12:51.749Z,14.08
2022-10-14T09:13:51.908Z,14.12
2022-10-14T09:14:52.103Z,14.17
2022-10-14T09:15:52.269Z,14.14
2022-10-14T09:16:54.324Z,14.11
2022-10-14T09:17:52.712Z,14.14
2022-10-14T09:18:54.777Z,14.12
2022-10-14T09:19:53.114Z,14.15
2022-10-14T09:20:53.234Z,14.17
2022-10-14T09:21:53.826Z,14.08
2022-10-14T09:22:53.620Z,14.04
2022-10-14T09:23:53.776Z,14.03
2022-10-14T09:24:53.986Z,13.99
2022-10-14T09:25:54.165Z,13.99
2022-10-14T09:26:54.406Z,14.03
2022-10-14T09:27:54.534Z,13.96
2022-10-14T09:28:54.745Z,13.93
2022-10-14T09:29:54.894Z,13.92
2022-10-14T09:30:55.094Z,13.96
2022-10-14T09:31:55.302Z,13.93
2022-10-14T09:32:55.538Z,13.92
2022-10-14T09:33:55.692Z,13.92
2022-10-14T09:34:55.905Z,13.95
2022-10-14T09:35:56.145Z,13.96
2022-10-14T09:36:56.269Z,14.00
2022-10-14T09:37:56.458Z,14.05
2022-10-14T09:38:56.632Z,14.12
2022-10-14T09:39:56.796Z,14.14
2022-10-14T09:40:56.991Z,14.11
2022-10-14T09:41:57.179Z,14.15
2022-10-14T09:42:57.403Z,14.15
2022-10-14T09:43:57.569Z,14.11
2022-10-14T09:44:57.796Z,14.08
2022-10-14T09:45:57.948Z,14.11
2022-10-14T09:46:58.137Z,14.15
2022-10-14T09:47:58.350Z,14.22
2022-10-14T09:48:58.557Z,14.30
2022-10-14T09:49:58.678Z,14.33
2022-10-14T09:50:58.870Z,14.36
2022-10-14T09:51:59.074Z,14.26
2022-10-14T09:52:59.272Z,14.30
2022-10-14T09:53:59.550Z,14.33
2022-10-14T09:54:59.618Z,14.36
2022-10-14T09:55:59.845Z,14.41
2022-10-14T09:56:59.998Z,14.44
2022-10-14T09:58:00.210Z,14.44
2022-10-14T09:59:00.420Z,14.48
2022-10-14T10:00:00.620Z,14.48
2022-10-14T10:01:00.787Z,14.50
2022-10-14T10:02:00.982Z,14.53
2022-10-14T10:03:01.197Z,14.48
2022-10-14T10:05:01.557Z,14.60
2022-10-14T10:06:01.755Z,14.62
2022-10-14T10:07:01.940Z,14.55
2022-10-14T10:08:02.158Z,14.51
2022-10-14T10:09:02.325Z,14.37
2022-10-14T10:10:02.540Z,14.35
2022-10-14T10:11:06.482Z,14.30
2022-10-14T10:12:02.878Z,14.30
2022-10-14T10:13:03.201Z,14.33
2022-10-14T10:14:03.278Z,14.28
2022-10-14T10:15:03.435Z,14.26
2022-10-14T10:16:03.703Z,14.29
2022-10-14T10:17:03.827Z,14.29
2022-10-14T10:18:04.017Z,14.32
2022-10-14T10:19:04.192Z,14.32
2022-10-14T10:20:04.384Z,14.32
2022-10-14T10:21:04.580Z,14.36
2022-10-14T10:22:04.837Z,14.41
2022-10-14T10:23:04.982Z,14.47
2022-10-14T10:24:05.231Z,14.45
2022-10-14T10:25:05.358Z,14.43
2022-10-14T10:26:05.558Z,14.45
2022-10-14T10:27:05.746Z,14.44
2022-10-14T10:28:05.955Z,14.45
2022-10-14T10:29:06.128Z,14.47
2022-10-14T10:30:06.274Z,14.45
2022-10-14T10:31:06.472Z,14.43
2022-10-14T10:32:06.678Z,14.47
2022-10-14T10:33:06.923Z,14.50
2022-10-14T10:34:07.078Z,14.44
2022-10-14T10:35:07.350Z,14.44
2022-10-14T10:36:07.494Z,14.47
2022-10-14T10:37:07.674Z,14.45
2022-10-14T10:38:07.854Z,14.41
2022-10-14T10:39:08.035Z,14.40
2022-10-14T10:40:08.234Z,14.41
2022-10-14T10:41:08.420Z,14.48
2022-10-14T10:42:08.614Z,14.53
2022-10-14T10:43:08.832Z,14.55
2022-10-14T10:44:09.013Z,14.54
2022-10-14T10:45:09.164Z,14.48
2022-10-14T10:46:09.351Z,14.50
2022-10-14T10:47:09.565Z,14.47
2022-10-14T10:48:09.742Z,14.50
2022-10-14T10:49:09.905Z,14.55
2022-10-14T10:50:10.139Z,14.58
2022-10-14T10:51:10.282Z,14.58
2022-10-14T10:52:10.483Z,14.48
2022-10-14T10:53:10.693Z,14.43
2022-10-14T10:54:10.843Z,14.41
2022-10-14T10:55:11.043Z,14.41
2022-10-14T10:56:11.223Z,14.35
2022-10-14T10:57:11.422Z,14.29
2022-10-14T10:58:11.637Z,14.29
2022-10-14T10:59:11.842Z,14.26
2022-10-14T11:00:12.057Z,14.26
2022-10-14T11:01:12.260Z,14.26
2022-10-14T11:02:12.379Z,14.28
2022-10-14T11:03:12.555Z,14.25
2022-10-14T11:04:12.729Z,14.26
2022-10-14T11:05:12.913Z,14.29
2022-10-14T11:06:13.131Z,14.36
2022-10-14T11:07:13.294Z,14.40
2022-10-14T11:08:13.508Z,14.47
2022-10-14T11:09:13.680Z,14.48
2022-10-14T11:10:13.849Z,14.53
2022-10-14T11:11:14.042Z,14.59
2022-10-14T11:12:14.246Z,14.65
2022-10-14T11:13:14.456Z,14.73
2022-10-14T11:14:14.619Z,14.84
2022-10-14T11:15:14.821Z,14.92
2022-10-14T11:16:15.006Z,15.04
2022-10-14T11:17:15.241Z,15.29
2022-10-14T11:18:15.407Z,15.35
2022-10-14T11:19:15.573Z,15.29
2022-10-14T11:20:15.843Z,15.15
2022-10-14T11:21:15.946Z,14.99
2022-10-14T11:22:16.177Z,14.92
2022-10-14T11:23:16.353Z,14.91
2022-10-14T11:25:16.682Z,14.99
2022-10-14T11:26:16.873Z,15.09
2022-10-14T11:27:20.915Z,15.29
2022-10-14T11:28:17.337Z,15.35
2022-10-14T11:29:17.459Z,15.44
2022-10-14T11:30:17.669Z,15.44
2022-10-14T11:31:17.878Z,15.36
2022-10-14T11:32:18.097Z,15.39
2022-10-14T11:33:18.309Z,15.29
2022-10-14T11:34:18.460Z,15.11
2022-10-14T11:35:18.657Z,15.04
2022-10-14T11:36:18.853Z,15.04
2022-10-14T11:37:19.134Z,15.02
2022-10-14T11:38:19.217Z,14.85
2022-10-14T11:39:19.379Z,14.82
2022-10-14T11:40:19.577Z,14.84
2022-10-14T11:41:19.785Z,14.86
2022-10-14T11:42:20.226Z,14.89
2022-10-14T11:43:20.173Z,14.86
2022-10-14T11:44:20.351Z,14.97
2022-10-14T11:45:21.485Z,15.04
2022-10-14T11:46:20.719Z,15.00
2022-10-14T11:47:21.211Z,15.02
2022-10-14T11:48:21.102Z,15.03
2022-10-14T11:49:21.265Z,15.04
2022-10-14T11:50:21.468Z,15.18
2022-10-14T11:51:21.657Z,15.22
2022-10-14T11:52:21.875Z,15.51
2022-10-14T11:53:22.066Z,15.84
2022-10-14T11:54:22.232Z,15.88
2022-10-14T11:55:22.430Z,15.88
2022-10-14T11:56:22.638Z,15.72
2022-10-14T11:57:23.118Z,15.58
2022-10-14T11:58:23.002Z,15.54
2022-10-14T11:59:23.155Z,15.39
2022-10-14T12:00:23.404Z,15.42
2022-10-14T12:01:23.555Z,15.61
2022-10-14T12:02:24.110Z,15.75
2022-10-14T12:03:23.975Z,15.94
2022-10-14T12:04:24.177Z,15.80
2022-10-14T12:05:24.365Z,15.77
2022-10-14T12:06:24.587Z,15.57
2022-10-14T12:07:24.832Z,15.36
2022-10-14T12:08:24.996Z,15.15
2022-10-14T12:09:25.271Z,15.15
2022-10-14T12:10:25.380Z,15.15
2022-10-14T12:11:25.542Z,15.22
2022-10-14T12:12:25.755Z,15.15
2022-10-14T12:13:26.003Z,15.03
2022-10-14T12:14:26.154Z,15.03
2022-10-14T12:15:26.450Z,15.00
2022-10-14T12:16:26.552Z,14.96
2022-10-14T12:17:26.748Z,15.00
2022-10-14T12:18:26.980Z,14.99
2022-10-14T12:19:27.448Z,15.00
2022-10-14T12:20:27.303Z,15.15
2022-10-14T12:21:27.481Z,15.14
2022-10-14T12:22:27.711Z,15.33
2022-10-14T12:23:27.892Z,15.24
2022-10-14T12:24:28.088Z,15.46
2022-10-14T12:25:28.278Z,15.28
2022-10-14T12:26:28.459Z,15.33
2022-10-14T12:27:28.757Z,15.42
2022-10-14T12:28:28.963Z,15.52
2022-10-14T12:29:29.065Z,15.46
2022-10-14T12:30:29.258Z,15.49
2022-10-14T12:31:29.432Z,15.25
2022-10-14T12:32:29.614Z,15.40
2022-10-14T12:33:29.860Z,15.54
2022-10-14T12:34:30.007Z,15.62
2022-10-14T12:35:30.199Z,15.73
2022-10-14T12:36:30.432Z,15.68
2022-10-14T12:37:31.815Z,15.57
2022-10-14T12:38:30.781Z,15.49
2022-10-14T12:39:30.960Z,15.33
2022-10-14T12:40:31.150Z,15.24
2022-10-14T12:41:31.337Z,15.18
2022-10-14T12:42:31.521Z,15.14
2022-10-14T12:43:31.710Z,15.10
2022-10-14T12:44:31.889Z,15.09
2022-10-14T12:45:32.149Z,14.97
2022-10-14T12:46:32.254Z,14.88
2022-10-14T12:47:32.506Z,14.88
2022-10-14T12:48:32.709Z,14.78
2022-10-14T12:49:32.845Z,14.77
2022-10-14T12:50:33.064Z,14.70
2022-10-14T12:51:33.224Z,14.69
2022-10-14T12:52:33.424Z,14.60
2022-10-14T12:53:33.654Z,14.54
2022-10-14T12:54:33.819Z,14.65
2022-10-14T12:55:34.031Z,14.73
2022-10-14T12:56:34.186Z,14.73
2022-10-14T12:57:37.330Z,14.73
2022-10-14T12:58:34.633Z,14.69
2022-10-14T12:59:34.830Z,14.70
2022-10-14T13:00:34.973Z,14.69
2022-10-14T13:01:36.613Z,14.73
2022-10-14T13:02:35.344Z,14.91
2022-10-14T13:03:35.552Z,15.02
2022-10-14T13:04:35.704Z,15.06
2022-10-14T13:05:35.883Z,15.06
2022-10-14T13:06:36.096Z,15.03
2022-10-14T13:07:40.585Z,15.15
2022-10-14T13:08:36.520Z,15.22
2022-10-14T13:09:36.662Z,15.27
2022-10-14T13:10:40.391Z,15.17
2022-10-14T13:11:37.048Z,15.14
2022-10-14T13:12:37.213Z,15.10
2022-10-14T13:13:37.422Z,15.14
2022-10-14T13:14:37.595Z,15.09
2022-10-14T13:15:37.781Z,15.19
2022-10-14T13:16:37.983Z,15.27
2022-10-14T13:17:38.196Z,15.27
2022-10-14T13:18:38.373Z,15.36
2022-10-14T13:19:38.569Z,15.43
2022-10-14T13:20:38.734Z,15.49
2022-10-14T13:21:38.897Z,15.55
2022-10-14T13:22:39.097Z,15.61
2022-10-14T13:23:39.361Z,15.72
2022-10-14T13:24:39.472Z,15.72
2022-10-14T13:25:39.640Z,15.77
2022-10-14T13:26:39.850Z,15.70
2022-10-14T13:27:40.027Z,15.83
2022-10-14T13:28:40.311Z,16.08
2022-10-14T13:29:40.419Z,16.38
2022-10-14T13:30:40.571Z,16.50
2022-10-14T13:31:40.744Z,16.58
2022-10-14T13:32:40.933Z,16.41
2022-10-14T13:33:41.202Z,16.38
2022-10-14T13:34:41.340Z,16.32
2022-10-14T13:35:41.514Z,16.31
2022-10-14T13:36:41.718Z,16.49
2022-10-14T13:37:45.740Z,16.54
2022-10-14T13:38:42.158Z,16.53
2022-10-14T13:39:42.312Z,16.10
2022-10-14T13:40:42.531Z,16.08
2022-10-14T13:41:42.732Z,16.31
2022-10-14T13:42:42.920Z,16.29
2022-10-14T13:43:43.101Z,16.41
2022-10-14T13:44:43.370Z,16.38
2022-10-14T13:45:43.491Z,16.10
2022-10-14T13:46:43.694Z,16.10
2022-10-14T13:47:43.870Z,16.01
2022-10-14T13:48:44.082Z,16.00
2022-10-14T13:49:44.251Z,15.97
2022-10-14T13:50:44.472Z,16.01
2022-10-14T13:51:44.642Z,16.04
2022-10-14T13:52:44.832Z,15.98
2022-10-14T13:53:45.078Z,16.01
2022-10-14T13:54:45.239Z,16.02
2022-10-14T13:55:48.034Z,16.05
2022-10-14T13:56:45.606Z,15.92
2022-10-14T13:58:11.521Z,15.83
2022-10-14T13:58:45.988Z,15.84
2022-10-14T14:00:11.620Z,15.80
2022-10-14T14:00:46.373Z,15.77
2022-10-14T14:01:46.604Z,15.72
2022-10-14T14:02:50.383Z,15.72
2022-10-14T14:03:46.926Z,15.77
2022-10-14T14:04:47.097Z,15.79
2022-10-14T14:05:47.329Z,15.83
2022-10-14T14:07:03.108Z,15.86
2022-10-14T14:08:48.278Z,15.88
2022-10-14T14:09:48.022Z,15.86
2022-10-14T14:11:11.420Z,15.90
2022-10-14T14:11:48.366Z,15.95
2022-10-14T14:12:48.522Z,15.90
2022-10-14T14:13:54.523Z,15.94
2022-10-14T14:14:48.907Z,15.97
2022-10-14T14:15:49.141Z,15.98
2022-10-14T14:16:49.309Z,15.95
2022-10-14T14:17:49.500Z,15.97
2022-10-14T14:19:03.937Z,15.91
2022-10-14T14:19:49.895Z,15.83
2022-10-14T14:20:50.060Z,15.84
2022-10-14T14:21:50.273Z,15.82
2022-10-14T14:22:50.444Z,15.80
2022-10-14T14:23:50.664Z,15.77
2022-10-14T14:24:50.827Z,15.73
2022-10-14T14:26:18.031Z,15.75
2022-10-14T14:26:51.202Z,15.73
2022-10-14T14:27:51.428Z,15.75
2022-10-14T14:28:51.664Z,15.76
2022-10-14T14:29:51.797Z,15.75
2022-10-14T14:30:54.670Z,15.72
2022-10-14T14:32:08.452Z,15.72
2022-10-14T14:32:52.365Z,15.70
2022-10-14T14:33:52.592Z,15.70
2022-10-14T14:35:52.893Z,15.62
2022-10-14T14:36:57.871Z,15.64
2022-10-14T14:37:56.118Z,15.65
2022-10-14T14:38:53.446Z,15.64
2022-10-14T14:39:53.601Z,15.62
2022-10-14T14:40:53.809Z,15.59
2022-10-14T14:41:54.003Z,15.59
2022-10-14T14:42:54.188Z,15.59
2022-10-14T14:44:13.604Z,15.59
2022-10-14T14:44:54.592Z,15.61
2022-10-14T14:45:54.807Z,15.64
2022-10-14T14:46:54.929Z,15.61
2022-10-14T14:47:55.121Z,15.59
2022-10-14T14:48:55.364Z,15.58
2022-10-14T14:50:06.318Z,15.57
2022-10-14T14:50:55.727Z,15.55
2022-10-14T14:51:55.965Z,15.57
2022-10-14T14:52:56.086Z,15.58
2022-10-14T14:53:56.290Z,15.58
2022-10-14T14:54:56.462Z,15.61
2022-10-14T14:55:56.658Z,15.59
2022-10-14T14:56:56.857Z,15.59
2022-10-14T14:57:57.065Z,15.59
2022-10-14T14:58:57.250Z,15.61
2022-10-14T14:59:57.453Z,15.62
2022-10-14T15:00:57.588Z,15.62
2022-10-14T15:01:57.773Z,15.61
2022-10-14T15:02:57.997Z,15.59
2022-10-14T15:04:13.555Z,15.61
2022-10-14T15:04:58.354Z,15.58
2022-10-14T15:05:58.519Z,15.57
2022-10-14T15:06:58.712Z,15.54
2022-10-14T15:07:58.944Z,15.52
2022-10-14T15:08:59.128Z,15.52
2022-10-14T15:09:59.274Z,15.52
2022-10-14T15:10:59.503Z,15.54
2022-10-14T15:11:59.650Z,15.52
2022-10-14T15:12:59.821Z,15.51
2022-10-14T15:14:00.173Z,15.51
2022-10-14T15:15:00.318Z,15.49
2022-10-14T15:16:00.582Z,15.49
2022-10-14T15:17:00.711Z,15.47
2022-10-14T15:18:00.874Z,15.49
2022-10-14T15:19:01.088Z,15.47
2022-10-14T15:20:01.310Z,15.49
2022-10-14T15:21:01.418Z,15.47
2022-10-14T15:22:01.642Z,15.47
2022-10-14T15:23:01.830Z,15.47
2022-10-14T15:24:02.024Z,15.49
2022-10-14T15:25:02.190Z,15.47
2022-10-14T15:26:02.403Z,15.49
2022-10-14T15:27:02.577Z,15.51
2022-10-14T15:28:02.772Z,15.51
2022-10-14T15:29:02.992Z,15.51
2022-10-14T15:30:03.186Z,15.49
2022-10-14T15:31:05.674Z,15.46
2022-10-14T15:32:03.456Z,15.44
2022-10-14T15:33:03.721Z,15.47
2022-10-14T15:34:03.934Z,15.46
2022-10-14T15:35:04.039Z,15.44
2022-10-14T15:36:04.229Z,15.46
2022-10-14T15:37:04.421Z,15.46
2022-10-14T15:38:04.586Z,15.46
2022-10-14T15:39:04.782Z,15.46
2022-10-14T15:40:04.923Z,15.43
2022-10-14T15:41:05.086Z,15.43
2022-10-14T15:42:05.287Z,15.42
2022-10-14T15:43:05.558Z,15.42
2022-10-14T15:44:05.671Z,15.42
2022-10-14T15:45:05.842Z,15.42
2022-10-14T15:46:06.020Z,15.40
2022-10-14T15:47:06.162Z,15.42
2022-10-14T15:48:06.377Z,15.43
2022-10-14T15:49:06.526Z,15.43
2022-10-14T15:50:06.714Z,15.46
2022-10-14T15:51:07.031Z,15.46
2022-10-14T15:52:07.092Z,15.49
2022-10-14T15:53:07.315Z,15.52
2022-10-14T15:54:07.499Z,15.54
2022-10-14T15:55:07.676Z,15.52
2022-10-14T15:56:07.902Z,15.52
2022-10-14T15:57:10.101Z,15.52
2022-10-14T15:58:08.241Z,15.52
2022-10-14T15:59:08.425Z,15.51
2022-10-14T16:00:08.612Z,15.51
2022-10-14T16:01:08.836Z,15.49
2022-10-14T16:02:08.963Z,15.47
2022-10-14T16:03:09.143Z,15.47
2022-10-14T16:04:09.330Z,15.47
2022-10-14T16:05:24.890Z,15.46
2022-10-14T16:06:09.729Z,15.42
2022-10-14T16:07:09.838Z,15.43
2022-10-14T16:08:10.049Z,15.42
2022-10-14T16:09:10.238Z,15.39
2022-10-14T16:10:10.398Z,15.39
2022-10-14T16:11:10.592Z,15.37
2022-10-14T16:12:10.758Z,15.35
2022-10-14T16:13:10.979Z,15.36
2022-10-14T16:14:11.117Z,15.31
2022-10-14T16:15:11.304Z,15.29
2022-10-14T16:16:11.436Z,15.29
2022-10-14T16:17:11.595Z,15.29
2022-10-14T16:18:11.770Z,15.27
2022-10-14T16:19:11.968Z,15.28
2022-10-14T16:20:12.132Z,15.25
2022-10-14T16:21:12.339Z,15.22
2022-10-14T16:22:12.461Z,15.24
2022-10-14T16:23:12.637Z,15.22
2022-10-14T16:24:12.871Z,15.21
2022-10-14T16:25:12.994Z,15.21
2022-10-14T16:26:13.156Z,15.21
2022-10-14T16:27:13.446Z,15.21
2022-10-14T16:28:13.615Z,15.18
2022-10-14T16:29:13.799Z,15.19
2022-10-14T16:30:13.973Z,15.18
2022-10-14T16:31:14.248Z,15.18
2022-10-14T16:32:14.630Z,15.17
2022-10-14T16:33:14.843Z,15.15
2022-10-14T16:34:15.180Z,15.14
2022-10-14T16:35:15.330Z,15.14
2022-10-14T16:36:15.610Z,15.15
2022-10-14T16:37:15.780Z,15.14
2022-10-14T16:38:16.076Z,15.14
2022-10-14T16:39:16.286Z,15.10
2022-10-14T16:40:16.455Z,15.09
2022-10-14T16:41:16.622Z,15.11
2022-10-14T16:43:17.195Z,15.10
2022-10-14T16:44:17.518Z,15.11
2022-10-14T16:45:17.823Z,15.09
2022-10-14T16:46:18.081Z,15.07
2022-10-14T16:47:18.357Z,15.07
2022-10-14T16:48:18.544Z,15.07
2022-10-14T16:49:18.758Z,15.06
2022-10-14T16:50:19.079Z,15.04
2022-10-14T16:52:19.547Z,15.04
2022-10-14T16:53:19.518Z,15.03
2022-10-14T16:54:19.718Z,15.03
2022-10-14T16:55:20.078Z,15.03
2022-10-14T16:56:20.163Z,15.04
2022-10-14T16:57:20.337Z,15.03
2022-10-14T16:58:20.576Z,15.04
2022-10-14T16:59:20.826Z,15.02
2022-10-14T17:00:21.230Z,15.00
2022-10-14T17:01:21.644Z,15.00
2022-10-14T17:02:22.214Z,15.02
2022-10-14T17:03:22.358Z,14.99
2022-10-14T17:04:22.727Z,14.99
2022-10-14T17:05:23.130Z,14.99
2022-10-14T17:06:24.255Z,14.99